Time;durP1;ratioP1;P1;durP2;ratioP2;P2;SDS_P1;SDS_P2;PMS_P1;PMS_P2;Temp;Humidity;BMP_temperature;BMP_pressure;BME280_temperature;BME280_humidity;BME280_pressure;Samples;Min_cycle;Max_cycle;Signal;HPM_P1;HPM_P2
2021/08/26 00:00:43;;;;;;;;;;;15.20;99.40;;;;;;4938218;28;19921;-74
2021/08/26 00:05:54;;;;;;;;;;;15.10;99.00;;;;;;4937953;28;20029;-74
2021/08/26 00:08:21;;;;;;;;;;;15.10;99.00;;;;;;4938983;28;19918;-74
2021/08/26 00:10:46;;;;;;;;;;;15.10;99.00;;;;;;4936357;28;19918;-74
2021/08/26 00:13:13;;;;;;;;;;;15.10;98.60;;;;;;4939566;28;19925;-74
2021/08/26 00:15:43;;;;;;;;;;;15.00;98.50;;;;;;4937445;28;19941;-74
2021/08/26 00:18:09;;;;;;;;;;;14.90;98.50;;;;;;4937759;28;19965;-74
2021/08/26 00:20:34;;;;;;;;;;;14.90;98.60;;;;;;4938033;28;20199;-74
2021/08/26 00:22:59;;;;;;;;;;;14.90;98.70;;;;;;4939224;28;20005;-74
2021/08/26 00:25:25;;;;;;;;;;;14.90;98.70;;;;;;4937147;28;20369;-74
2021/08/26 00:27:50;;;;;;;;;;;14.90;98.70;;;;;;4938746;28;20301;-74
2021/08/26 00:30:16;;;;;;;;;;;14.80;99.00;;;;;;4954590;28;19934;-74
2021/08/26 00:32:41;;;;;;;;;;;14.80;98.80;;;;;;4936260;28;19919;-74
2021/08/26 00:35:07;;;;;;;;;;;14.80;98.80;;;;;;4937310;28;19915;-74
2021/08/26 00:37:32;;;;;;;;;;;14.80;98.90;;;;;;4937541;28;19919;-74
2021/08/26 00:39:58;;;;;;;;;;;14.80;98.70;;;;;;4939587;28;20054;-74
2021/08/26 00:42:23;;;;;;;;;;;14.80;98.50;;;;;;4934915;28;19918;-74
2021/08/26 00:44:49;;;;;;;;;;;14.80;98.40;;;;;;4938696;28;19925;-74
2021/08/26 00:47:14;;;;;;;;;;;14.80;98.50;;;;;;4936072;28;19926;-74
2021/08/26 00:49:40;;;;;;;;;;;14.80;98.20;;;;;;4939279;28;20010;-74
2021/08/26 00:52:08;;;;;;;;;;;14.80;98.20;;;;;;4936828;28;19968;-74
2021/08/26 00:54:34;;;;;;;;;;;14.80;98.30;;;;;;4937783;28;19918;-74
2021/08/26 00:56:59;;;;;;;;;;;14.80;98.40;;;;;;4936445;28;20313;-74
2021/08/26 00:59:26;;;;;;;;;;;14.80;98.40;;;;;;4939214;28;20262;-74
2021/08/26 01:02:10;;;;;;;;;;;14.80;98.50;;;;;;4936569;28;19998;-75
2021/08/26 01:04:39;;;;;;;;;;;14.80;98.50;;;;;;4939356;28;19953;-75
2021/08/26 01:07:06;;;;;;;;;;;14.70;98.50;;;;;;4937319;28;19966;-75
2021/08/26 01:09:37;;;;;;;;;;;14.70;98.60;;;;;;4951900;28;19919;-75
2021/08/26 01:12:03;;;;;;;;;;;14.70;98.60;;;;;;4936673;29;20319;-74
2021/08/26 01:14:29;;;;;;;;;;;14.70;98.60;;;;;;4954620;28;19919;-74
2021/08/26 01:16:54;;;;;;;;;;;14.80;98.70;;;;;;4942939;28;19914;-74
2021/08/26 01:19:19;;;;;;;;;;;14.80;98.70;;;;;;4941462;28;19984;-74
2021/08/26 01:21:46;;;;;;;;;;;14.80;98.80;;;;;;4939294;28;19927;-74
2021/08/26 01:24:13;;;;;;;;;;;14.80;98.90;;;;;;4940404;28;19976;-74
2021/08/26 01:26:42;;;;;;;;;;;14.80;98.90;;;;;;4940576;28;19925;-74
2021/08/26 01:29:08;;;;;;;;;;;14.80;99.00;;;;;;4940255;28;20370;-74
2021/08/26 01:31:34;;;;;;;;;;;14.80;99.00;;;;;;4952636;28;19914;-74
2021/08/26 01:34:00;;;;;;;;;;;14.80;99.10;;;;;;4941496;28;20013;-74
2021/08/26 01:36:26;;;;;;;;;;;14.80;99.10;;;;;;4939652;28;19914;-74
2021/08/26 01:38:52;;;;;;;;;;;14.70;99.20;;;;;;4940229;28;20307;-74
2021/08/26 01:41:18;;;;;;;;;;;14.70;99.20;;;;;;4942407;28;20500;-74
2021/08/26 01:43:47;;;;;;;;;;;14.70;99.20;;;;;;4937785;28;19915;-75
2021/08/26 01:46:16;;;;;;;;;;;14.60;99.30;;;;;;4940164;28;20416;-74
2021/08/26 01:48:45;;;;;;;;;;;14.60;99.10;;;;;;4941057;28;19919;-74
2021/08/26 01:51:10;;;;;;;;;;;14.70;99.10;;;;;;4941559;28;19988;-74
2021/08/26 01:53:36;;;;;;;;;;;14.60;99.10;;;;;;4940193;29;20329;-74
2021/08/26 01:56:01;;;;;;;;;;;14.60;99.10;;;;;;4940767;28;19949;-74
2021/08/26 01:58:27;;;;;;;;;;;14.60;99.10;;;;;;4939475;28;20144;-74
2021/08/26 02:00:52;;;;;;;;;;;14.60;99.20;;;;;;4941336;28;20002;-74
2021/08/26 02:03:18;;;;;;;;;;;14.60;99.20;;;;;;4937354;28;19926;-74
2021/08/26 02:05:44;;;;;;;;;;;14.60;99.20;;;;;;4940865;28;19923;-74
2021/08/26 02:08:09;;;;;;;;;;;14.60;99.20;;;;;;4941830;28;19965;-74
2021/08/26 02:10:34;;;;;;;;;;;14.60;99.10;;;;;;5022442;28;20029;-74
2021/08/26 02:13:00;;;;;;;;;;;14.60;99.00;;;;;;4939509;28;20025;-74
2021/08/26 02:15:25;;;;;;;;;;;14.60;99.00;;;;;;4942359;28;20331;-74
2021/08/26 02:17:51;;;;;;;;;;;14.60;99.00;;;;;;4939230;28;20327;-74
2021/08/26 02:20:16;;;;;;;;;;;14.60;99.00;;;;;;4940291;28;20005;-74
2021/08/26 02:22:42;;;;;;;;;;;14.60;99.00;;;;;;4937732;28;20045;-74
2021/08/26 02:25:08;;;;;;;;;;;14.60;98.90;;;;;;4940784;28;19916;-74
2021/08/26 02:27:34;;;;;;;;;;;14.60;98.90;;;;;;4938880;28;19969;-74
2021/08/26 02:29:59;;;;;;;;;;;14.60;98.80;;;;;;4940403;28;19930;-74
2021/08/26 02:32:29;;;;;;;;;;;14.60;98.80;;;;;;4936767;28;19957;-74
2021/08/26 02:34:56;;;;;;;;;;;14.60;98.80;;;;;;4940938;28;20021;-74
2021/08/26 02:37:21;;;;;;;;;;;14.60;98.80;;;;;;4939673;28;19972;-74
2021/08/26 02:39:47;;;;;;;;;;;14.60;98.80;;;;;;4940879;28;19918;-74
2021/08/26 02:42:12;;;;;;;;;;;14.60;98.80;;;;;;4941250;28;20049;-74
2021/08/26 02:44:37;;;;;;;;;;;14.60;98.70;;;;;;4940508;28;20021;-74
2021/08/26 02:47:03;;;;;;;;;;;14.60;98.70;;;;;;4938866;28;19914;-74
2021/08/26 02:49:28;;;;;;;;;;;14.60;98.70;;;;;;4940695;28;19915;-74
2021/08/26 02:51:54;;;;;;;;;;;14.50;98.70;;;;;;4940889;28;19915;-74
2021/08/26 02:54:19;;;;;;;;;;;14.50;98.80;;;;;;4941118;28;19919;-74
2021/08/26 02:56:44;;;;;;;;;;;14.50;98.80;;;;;;4940325;28;20449;-74
2021/08/26 02:59:10;;;;;;;;;;;14.50;98.80;;;;;;4936401;28;20017;-74
2021/08/26 03:01:35;;;;;;;;;;;14.60;98.80;;;;;;4940182;28;20388;-74
2021/08/26 03:04:01;;;;;;;;;;;14.50;98.80;;;;;;4939323;28;19930;-74
2021/08/26 03:06:26;;;;;;;;;;;14.50;98.80;;;;;;4939559;28;20017;-74
2021/08/26 03:08:51;;;;;;;;;;;14.50;98.80;;;;;;4937723;28;19934;-75
2021/08/26 03:11:17;;;;;;;;;;;14.50;98.80;;;;;;4938040;28;19918;-75
2021/08/26 03:13:42;;;;;;;;;;;14.50;98.90;;;;;;4938384;28;19914;-75
2021/08/26 03:16:08;;;;;;;;;;;14.50;98.90;;;;;;4940121;28;19934;-75
2021/08/26 03:18:33;;;;;;;;;;;14.50;98.90;;;;;;4952870;28;19925;-75
2021/08/26 03:20:59;;;;;;;;;;;14.50;98.90;;;;;;4938351;28;20388;-75
2021/08/26 03:23:24;;;;;;;;;;;14.50;98.80;;;;;;4938737;28;19994;-74
2021/08/26 03:25:50;;;;;;;;;;;14.50;98.90;;;;;;4940034;28;19927;-74
2021/08/26 03:28:18;;;;;;;;;;;14.50;98.90;;;;;;4937558;28;19922;-74
2021/08/26 03:30:44;;;;;;;;;;;14.50;98.90;;;;;;4952981;28;19915;-74
2021/08/26 03:33:09;;;;;;;;;;;14.50;98.90;;;;;;4940295;28;19994;-74
2021/08/26 03:35:35;;;;;;;;;;;14.50;98.90;;;;;;4941413;28;20277;-74
2021/08/26 03:38:00;;;;;;;;;;;14.40;98.90;;;;;;4942313;28;19956;-74
2021/08/26 03:40:26;;;;;;;;;;;14.40;98.90;;;;;;4941891;28;19925;-74
2021/08/26 03:42:51;;;;;;;;;;;14.50;98.90;;;;;;4940506;28;19915;-74
2021/08/26 03:45:17;;;;;;;;;;;14.50;98.90;;;;;;4937567;28;19923;-74
2021/08/26 03:47:42;;;;;;;;;;;14.50;98.90;;;;;;4939760;28;19931;-74
2021/08/26 03:50:08;;;;;;;;;;;14.50;98.90;;;;;;4952586;28;19914;-74
2021/08/26 03:52:33;;;;;;;;;;;14.50;98.90;;;;;;4939852;28;20298;-74
2021/08/26 03:54:58;;;;;;;;;;;14.50;98.90;;;;;;4938867;28;19918;-74
2021/08/26 03:57:26;;;;;;;;;;;14.50;98.90;;;;;;4938384;28;21254;-74
2021/08/26 03:59:51;;;;;;;;;;;14.50;98.80;;;;;;4937463;28;19914;-74
2021/08/26 04:02:16;;;;;;;;;;;14.50;98.90;;;;;;4938873;28;19941;-74
2021/08/26 04:04:42;;;;;;;;;;;14.40;98.80;;;;;;4938908;28;20013;-74
2021/08/26 04:07:07;;;;;;;;;;;14.40;98.80;;;;;;4939558;28;19972;-74
2021/08/26 04:09:33;;;;;;;;;;;14.40;98.80;;;;;;4953191;28;20060;-74
2021/08/26 04:11:58;;;;;;;;;;;14.40;98.90;;;;;;4940279;28;19922;-74
2021/08/26 04:14:24;;;;;;;;;;;14.40;98.90;;;;;;4936805;28;19919;-74
2021/08/26 04:16:49;;;;;;;;;;;14.40;98.90;;;;;;4937973;28;19969;-74
2021/08/26 04:19:14;;;;;;;;;;;14.40;99.00;;;;;;4936415;28;19923;-74
2021/08/26 04:21:40;;;;;;;;;;;14.30;98.90;;;;;;4936237;28;19914;-75
2021/08/26 04:24:05;;;;;;;;;;;14.40;99.00;;;;;;4938048;28;20456;-74
2021/08/26 04:26:31;;;;;;;;;;;14.40;99.10;;;;;;4932820;28;19988;-75
2021/08/26 04:28:56;;;;;;;;;;;14.40;99.00;;;;;;4939889;28;19915;-75
2021/08/26 04:31:22;;;;;;;;;;;14.30;99.10;;;;;;4937641;28;19918;-75
2021/08/26 04:33:47;;;;;;;;;;;14.30;99.10;;;;;;4938608;28;19914;-75
2021/08/26 04:36:13;;;;;;;;;;;14.30;99.10;;;;;;4938381;29;20467;-75
2021/08/26 04:38:38;;;;;;;;;;;14.30;99.10;;;;;;4939160;28;19922;-75
2021/08/26 04:41:03;;;;;;;;;;;14.30;99.10;;;;;;4938008;28;19915;-75
2021/08/26 04:43:29;;;;;;;;;;;14.30;99.10;;;;;;4942877;28;19929;-75
2021/08/26 04:45:54;;;;;;;;;;;14.30;99.20;;;;;;4943827;28;19919;-75
2021/08/26 04:48:20;;;;;;;;;;;14.30;99.20;;;;;;4940999;28;19914;-75
2021/08/26 04:50:45;;;;;;;;;;;14.30;99.10;;;;;;4945225;28;19926;-75
2021/08/26 04:53:11;;;;;;;;;;;14.30;99.10;;;;;;4957776;28;19919;-75
2021/08/26 04:55:36;;;;;;;;;;;14.30;99.20;;;;;;4943905;28;19923;-75
2021/08/26 04:58:01;;;;;;;;;;;14.40;99.10;;;;;;4945177;28;20370;-75
2021/08/26 05:00:27;;;;;;;;;;;14.40;99.10;;;;;;4944217;28;19914;-76
2021/08/26 05:02:52;;;;;;;;;;;14.40;99.10;;;;;;4945500;28;19915;-76
2021/08/26 05:05:18;;;;;;;;;;;14.40;99.10;;;;;;4938424;28;19922;-75
2021/08/26 05:07:43;;;;;;;;;;;14.40;99.10;;;;;;4942652;28;19961;-75
2021/08/26 05:10:09;;;;;;;;;;;14.40;99.10;;;;;;4942226;28;19936;-74
2021/08/26 05:12:34;;;;;;;;;;;14.40;99.10;;;;;;4943258;28;19914;-74
2021/08/26 05:14:59;;;;;;;;;;;14.40;99.20;;;;;;4956137;28;20297;-74
2021/08/26 05:17:25;;;;;;;;;;;14.40;99.20;;;;;;4942613;28;20269;-74
2021/08/26 05:19:50;;;;;;;;;;;14.40;99.10;;;;;;4943890;28;20298;-74
2021/08/26 05:22:16;;;;;;;;;;;14.50;99.10;;;;;;4943379;28;20351;-74
2021/08/26 05:24:41;;;;;;;;;;;14.50;99.10;;;;;;4944769;28;20392;-74
2021/08/26 05:27:07;;;;;;;;;;;14.50;99.00;;;;;;4945129;28;19919;-74
2021/08/26 05:29:32;;;;;;;;;;;14.50;99.00;;;;;;4943693;28;19914;-74
2021/08/26 05:31:57;;;;;;;;;;;14.50;98.90;;;;;;4943631;28;19960;-74
2021/08/26 05:34:23;;;;;;;;;;;14.50;98.90;;;;;;4943322;28;19976;-74
2021/08/26 05:36:48;;;;;;;;;;;14.50;98.90;;;;;;4958511;28;19915;-74
2021/08/26 05:39:14;;;;;;;;;;;14.50;98.90;;;;;;4945233;28;19915;-74
2021/08/26 05:41:44;;;;;;;;;;;14.60;98.90;;;;;;4943013;28;19911;-74
2021/08/26 05:44:16;;;;;;;;;;;14.60;99.00;;;;;;4948822;28;20334;-74
2021/08/26 05:46:42;;;;;;;;;;;14.50;99.00;;;;;;4942571;28;20033;-75
2021/08/26 05:49:07;;;;;;;;;;;14.60;99.00;;;;;;4945729;28;19925;-75
2021/08/26 05:51:33;;;;;;;;;;;14.50;98.90;;;;;;4944319;28;20278;-74
2021/08/26 05:53:58;;;;;;;;;;;14.60;98.90;;;;;;4943775;28;19985;-74
2021/08/26 05:56:24;;;;;;;;;;;14.60;98.90;;;;;;4977785;23;20340;-77
2021/08/26 05:58:49;;;;;;;;;;;14.60;98.90;;;;;;4961712;28;20330;-77
2021/08/26 06:01:15;;;;;;;;;;;14.60;98.90;;;;;;4958851;28;20471;-77
2021/08/26 06:03:40;;;;;;;;;;;14.60;98.80;;;;;;4960397;28;19910;-77
2021/08/26 06:06:06;;;;;;;;;;;14.60;98.80;;;;;;4958792;28;19970;-78
2021/08/26 06:08:31;;;;;;;;;;;14.60;98.90;;;;;;4963537;28;19914;-77
2021/08/26 06:10:56;;;;;;;;;;;14.60;98.90;;;;;;4960151;28;20384;-78
2021/08/26 06:13:22;;;;;;;;;;;14.70;98.80;;;;;;4958480;28;19916;-77
2021/08/26 06:15:47;;;;;;;;;;;14.80;98.70;;;;;;4958264;28;20299;-76
2021/08/26 06:18:15;;;;;;;;;;;14.90;98.70;;;;;;4958480;28;20339;-74
2021/08/26 06:20:42;;;;;;;;;;;14.90;98.60;;;;;;4961684;28;20006;-74
2021/08/26 06:23:07;;;;;;;;;;;15.00;98.50;;;;;;4960124;28;19922;-74
2021/08/26 06:25:33;;;;;;;;;;;15.00;98.40;;;;;;4959824;28;19925;-74
2021/08/26 06:27:59;;;;;;;;;;;15.10;98.20;;;;;;4959978;28;19918;-74
2021/08/26 06:30:25;;;;;;;;;;;15.10;98.10;;;;;;4961330;28;20357;-74
2021/08/26 06:32:50;;;;;;;;;;;15.10;98.10;;;;;;4957773;28;19914;-75
2021/08/26 06:35:16;;;;;;;;;;;15.10;98.00;;;;;;4960313;28;19945;-75
2021/08/26 06:37:41;;;;;;;;;;;15.10;98.10;;;;;;4960583;28;19914;-75
2021/08/26 06:40:07;;;;;;;;;;;15.20;98.20;;;;;;4961911;28;19961;-75
2021/08/26 06:42:33;;;;;;;;;;;15.20;98.20;;;;;;4948500;28;19914;-74
2021/08/26 06:44:58;;;;;;;;;;;15.30;98.10;;;;;;4959365;28;19927;-73
2021/08/26 06:47:24;;;;;;;;;;;15.30;97.80;;;;;;4959748;28;19981;-74
2021/08/26 06:49:49;;;;;;;;;;;15.40;97.70;;;;;;4964969;28;19922;-74
2021/08/26 06:52:14;;;;;;;;;;;15.40;97.80;;;;;;4964274;28;19913;-74
2021/08/26 06:54:40;;;;;;;;;;;15.40;97.70;;;;;;4959512;28;19921;-74
2021/08/26 06:57:06;;;;;;;;;;;15.50;97.60;;;;;;4958898;28;19922;-74
2021/08/26 06:59:32;;;;;;;;;;;15.50;97.50;;;;;;4961152;28;19938;-74
2021/08/26 07:01:57;;;;;;;;;;;15.50;97.50;;;;;;4959718;28;20328;-74
2021/08/26 07:04:23;;;;;;;;;;;15.50;97.50;;;;;;4959203;28;19968;-75
2021/08/26 07:06:55;;;;;;;;;;;15.50;97.50;;;;;;4960065;28;20355;-74
2021/08/26 07:09:21;;;;;;;;;;;15.60;97.00;;;;;;4958732;28;19914;-74
2021/08/26 07:11:46;;;;;;;;;;;15.60;96.80;;;;;;4958384;28;20055;-74
2021/08/26 07:14:11;;;;;;;;;;;15.60;96.80;;;;;;4958176;28;20020;-74
2021/08/26 07:16:37;;;;;;;;;;;15.70;96.90;;;;;;4960133;28;20296;-74
2021/08/26 07:19:02;;;;;;;;;;;15.70;97.00;;;;;;4957633;28;19914;-73
2021/08/26 07:21:28;;;;;;;;;;;15.70;96.80;;;;;;4959779;28;19914;-74
2021/08/26 07:23:53;;;;;;;;;;;15.70;96.80;;;;;;4957251;28;20427;-74
2021/08/26 07:26:19;;;;;;;;;;;15.80;96.80;;;;;;4961108;28;20009;-74
2021/08/26 07:28:45;;;;;;;;;;;15.80;96.70;;;;;;4959782;28;20009;-75
2021/08/26 07:31:10;;;;;;;;;;;15.80;96.70;;;;;;4959456;28;20189;-75
2021/08/26 07:33:36;;;;;;;;;;;15.80;96.70;;;;;;4960372;28;20512;-75
2021/08/26 07:36:02;;;;;;;;;;;15.90;96.40;;;;;;4960549;28;19914;-75
2021/08/26 07:38:28;;;;;;;;;;;15.90;96.30;;;;;;4960148;28;20323;-74
2021/08/26 07:40:53;;;;;;;;;;;15.90;96.10;;;;;;4958867;28;19914;-74
2021/08/26 07:43:19;;;;;;;;;;;16.00;96.30;;;;;;4957415;28;19983;-74
2021/08/26 07:45:44;;;;;;;;;;;16.00;96.20;;;;;;4959169;28;19923;-75
2021/08/26 07:48:10;;;;;;;;;;;16.10;95.90;;;;;;4958299;28;20264;-73
2021/08/26 07:50:35;;;;;;;;;;;16.20;95.70;;;;;;4959902;28;19918;-74
2021/08/26 07:53:01;;;;;;;;;;;16.20;95.50;;;;;;4958390;28;19959;-74
2021/08/26 07:55:26;;;;;;;;;;;16.20;95.50;;;;;;4959646;28;20429;-74
2021/08/26 07:57:51;;;;;;;;;;;16.30;95.70;;;;;;4956746;28;20444;-74
2021/08/26 08:00:17;;;;;;;;;;;16.30;95.70;;;;;;4958658;28;20013;-75
2021/08/26 08:02:42;;;;;;;;;;;16.50;95.10;;;;;;4958721;28;19914;-74
2021/08/26 08:05:08;;;;;;;;;;;16.50;95.30;;;;;;4961523;28;20266;-74
2021/08/26 08:07:34;;;;;;;;;;;16.60;95.40;;;;;;4961415;28;19921;-74
2021/08/26 08:09:59;;;;;;;;;;;16.70;95.10;;;;;;4948400;28;19925;-74
2021/08/26 08:12:25;;;;;;;;;;;16.80;95.00;;;;;;4959152;28;20017;-74
2021/08/26 08:14:50;;;;;;;;;;;16.80;94.50;;;;;;4955852;28;20035;-74
2021/08/26 08:17:15;;;;;;;;;;;16.80;94.20;;;;;;4960383;28;19922;-74
2021/08/26 08:19:41;;;;;;;;;;;16.90;94.40;;;;;;4959061;28;19917;-75
2021/08/26 08:22:06;;;;;;;;;;;16.90;94.50;;;;;;4960221;28;19976;-75
2021/08/26 08:24:32;;;;;;;;;;;17.00;94.30;;;;;;4959777;28;19918;-74
2021/08/26 08:26:57;;;;;;;;;;;17.00;94.10;;;;;;4959683;28;19950;-74
2021/08/26 08:29:23;;;;;;;;;;;17.00;93.90;;;;;;4947913;28;19915;-74
2021/08/26 08:31:48;;;;;;;;;;;17.00;93.60;;;;;;4959539;28;20363;-73
2021/08/26 08:34:14;;;;;;;;;;;16.90;93.70;;;;;;4957788;28;19918;-73
2021/08/26 08:36:39;;;;;;;;;;;16.90;93.80;;;;;;4960040;28;20266;-74
2021/08/26 08:39:05;;;;;;;;;;;16.90;93.90;;;;;;4956614;28;20006;-74
2021/08/26 08:41:32;;;;;;;;;;;16.90;93.70;;;;;;4960526;28;20368;-74
2021/08/26 08:43:58;;;;;;;;;;;16.80;93.80;;;;;;4958813;28;20258;-74
2021/08/26 08:46:24;;;;;;;;;;;16.80;93.60;;;;;;4943894;28;20438;-74
2021/08/26 08:48:50;;;;;;;;;;;16.80;93.70;;;;;;4939341;28;19927;-74
2021/08/26 08:51:15;;;;;;;;;;;16.80;93.90;;;;;;4959924;28;19915;-74
2021/08/26 08:53:41;;;;;;;;;;;16.70;93.90;;;;;;4948131;28;19938;-75
2021/08/26 08:56:08;;;;;;;;;;;16.70;94.00;;;;;;4958269;28;20028;-75
2021/08/26 08:58:36;;;;;;;;;;;16.70;94.00;;;;;;4959358;28;19915;-75
2021/08/26 09:01:02;;;;;;;;;;;16.70;94.00;;;;;;4957239;28;19915;-74
2021/08/26 09:03:27;;;;;;;;;;;16.70;94.20;;;;;;4942075;28;20326;-73
2021/08/26 09:05:54;;;;;;;;;;;16.70;93.90;;;;;;4955137;28;20282;-73
2021/08/26 09:08:22;;;;;;;;;;;16.60;94.00;;;;;;4960374;28;19914;-74
2021/08/26 09:10:48;;;;;;;;;;;16.60;94.30;;;;;;4952489;28;19922;-75
2021/08/26 09:13:13;;;;;;;;;;;16.60;94.30;;;;;;4955034;28;19992;-75
2021/08/26 09:15:43;;;;;;;;;;;16.70;94.00;;;;;;4941181;28;19922;-73
2021/08/26 09:18:12;;;;;;;;;;;16.70;93.90;;;;;;4959084;28;19929;-73
2021/08/26 09:20:47;;;;;;;;;;;16.70;93.70;;;;;;4958575;28;19968;-73
2021/08/26 09:23:12;;;;;;;;;;;16.70;93.80;;;;;;4957496;28;20511;-73
2021/08/26 09:25:40;;;;;;;;;;;16.70;93.80;;;;;;4957756;28;19977;-73
2021/08/26 09:28:05;;;;;;;;;;;16.70;93.60;;;;;;4957960;28;19910;-73
2021/08/26 09:30:30;;;;;;;;;;;16.70;93.60;;;;;;4955332;28;19918;-73
2021/08/26 09:32:57;;;;;;;;;;;16.70;93.40;;;;;;4957193;28;19914;-73
2021/08/26 09:35:26;;;;;;;;;;;16.70;93.30;;;;;;4958772;28;20058;-73
2021/08/26 09:37:56;;;;;;;;;;;16.70;93.20;;;;;;4961757;28;19997;-73
2021/08/26 09:40:23;;;;;;;;;;;16.70;93.10;;;;;;4958883;28;19921;-74
2021/08/26 09:42:57;;;;;;;;;;;16.70;93.00;;;;;;4960710;28;19998;-74
2021/08/26 09:45:24;;;;;;;;;;;16.70;93.40;;;;;;4960473;28;19929;-74
2021/08/26 09:48:09;;;;;;;;;;;16.80;94.20;;;;;;4961985;28;20008;-74
2021/08/26 09:50:53;;;;;;;;;;;16.80;94.30;;;;;;4960213;28;19970;-73
2021/08/26 09:53:25;;;;;;;;;;;16.80;94.10;;;;;;4963964;28;19941;-74
2021/08/26 09:55:55;;;;;;;;;;;16.80;94.00;;;;;;4960178;28;20396;-73
2021/08/26 09:58:22;;;;;;;;;;;16.90;93.90;;;;;;4959689;28;19918;-74
2021/08/26 10:00:47;;;;;;;;;;;17.00;93.70;;;;;;4960864;28;19914;-74
2021/08/26 10:03:14;;;;;;;;;;;17.10;93.50;;;;;;4960476;28;19915;-74
2021/08/26 10:05:43;;;;;;;;;;;17.20;93.10;;;;;;4959318;28;19922;-74
2021/08/26 10:08:09;;;;;;;;;;;17.20;93.00;;;;;;4962081;28;19979;-74
2021/08/26 10:10:38;;;;;;;;;;;17.30;92.70;;;;;;4960984;28;19997;-73
2021/08/26 10:13:03;;;;;;;;;;;17.30;92.20;;;;;;4961776;28;20036;-74
2021/08/26 10:15:29;;;;;;;;;;;17.30;91.00;;;;;;4963745;28;20448;-74
2021/08/26 10:17:54;;;;;;;;;;;17.30;91.40;;;;;;4945265;28;19914;-74
2021/08/26 10:20:20;;;;;;;;;;;17.30;91.30;;;;;;4957886;28;19918;-74
2021/08/26 10:22:47;;;;;;;;;;;17.40;91.20;;;;;;4961080;28;19969;-73
2021/08/26 10:25:12;;;;;;;;;;;17.50;91.00;;;;;;4962113;28;20382;-73
2021/08/26 10:27:38;;;;;;;;;;;17.50;91.70;;;;;;4959533;28;19923;-73
2021/08/26 10:30:04;;;;;;;;;;;17.50;91.70;;;;;;4960524;28;19925;-73
2021/08/26 10:32:29;;;;;;;;;;;17.40;91.70;;;;;;4959399;28;19918;-73
2021/08/26 10:35:02;;;;;;;;;;;17.30;92.40;;;;;;4959144;28;19918;-73
2021/08/26 10:37:28;;;;;;;;;;;17.30;93.40;;;;;;4960819;28;20397;-73
2021/08/26 10:39:53;;;;;;;;;;;17.10;93.50;;;;;;4959550;28;19972;-73
2021/08/26 10:42:19;;;;;;;;;;;17.10;93.80;;;;;;4958963;28;19919;-74
2021/08/26 10:45:00;;;;;;;;;;;16.90;93.90;;;;;;4961783;28;19919;-73
2021/08/26 10:47:44;;;;;;;;;;;16.90;94.30;;;;;;4956996;28;20327;-74
2021/08/26 10:50:17;;;;;;;;;;;16.90;94.40;;;;;;4960233;28;19922;-73
2021/08/26 10:52:56;;;;;;;;;;;16.90;94.20;;;;;;4959870;28;19922;-74
2021/08/26 10:55:28;;;;;;;;;;;16.90;94.30;;;;;;4960910;28;19919;-73
2021/08/26 10:57:53;;;;;;;;;;;17.00;94.50;;;;;;4942302;28;20277;-73
2021/08/26 11:00:37;;;;;;;;;;;17.10;94.70;;;;;;4961026;28;19918;-73
2021/08/26 11:03:02;;;;;;;;;;;17.20;94.70;;;;;;4959554;28;19937;-73
2021/08/26 11:05:35;;;;;;;;;;;17.30;94.20;;;;;;4958731;28;19945;-72
2021/08/26 11:08:20;;;;;;;;;;;17.30;94.00;;;;;;4959777;28;20595;-72
2021/08/26 11:10:46;;;;;;;;;;;17.30;93.70;;;;;;4961400;28;19914;-72
2021/08/26 11:13:28;;;;;;;;;;;17.40;93.40;;;;;;4941702;28;19979;-73
2021/08/26 11:15:54;;;;;;;;;;;17.50;93.10;;;;;;4958604;28;19922;-72
2021/08/26 11:18:29;;;;;;;;;;;17.60;91.90;;;;;;4958312;28;20329;-72
2021/08/26 11:20:55;;;;;;;;;;;17.60;91.20;;;;;;4959410;28;19941;-72
2021/08/26 11:23:41;;;;;;;;;;;17.70;90.80;;;;;;4956767;28;19914;-74
2021/08/26 11:26:25;;;;;;;;;;;17.80;90.60;;;;;;4959885;28;19922;-73
2021/08/26 11:28:50;;;;;;;;;;;17.90;90.20;;;;;;4960075;28;19960;-73
2021/08/26 11:31:17;;;;;;;;;;;18.10;90.30;;;;;;4958804;28;20191;-73
2021/08/26 11:33:42;;;;;;;;;;;18.30;90.10;;;;;;4960003;28;19918;-75
2021/08/26 11:36:15;;;;;;;;;;;18.60;89.20;;;;;;4942045;28;19914;-74
2021/08/26 11:38:44;;;;;;;;;;;18.70;87.60;;;;;;4960054;28;19914;-75
2021/08/26 11:41:10;;;;;;;;;;;18.70;86.70;;;;;;4960075;28;20022;-76
2021/08/26 11:43:39;;;;;;;;;;;18.70;85.80;;;;;;4956677;28;19933;-76
2021/08/26 11:46:09;;;;;;;;;;;18.70;87.20;;;;;;4960239;28;19975;-77
2021/08/26 11:48:35;;;;;;;;;;;18.40;86.80;;;;;;4958110;28;19925;-77
2021/08/26 11:51:02;;;;;;;;;;;18.10;88.20;;;;;;4957489;28;19914;-74
2021/08/26 11:53:27;;;;;;;;;;;17.90;90.00;;;;;;4957422;28;19937;-73
2021/08/26 11:55:55;;;;;;;;;;;17.60;89.90;;;;;;4983997;23;19929;-68
2021/08/26 11:58:20;;;;;;;;;;;17.40;91.10;;;;;;4967203;28;19926;-70
2021/08/26 12:00:50;;;;;;;;;;;17.10;91.10;;;;;;4966797;28;20505;-69
2021/08/26 12:03:18;;;;;;;;;;;16.90;91.50;;;;;;4967877;28;19997;-70
2021/08/26 12:05:44;;;;;;;;;;;16.80;91.90;;;;;;4966097;28;19922;-70
2021/08/26 12:08:10;;;;;;;;;;;16.80;92.30;;;;;;4949388;28;19924;-69
2021/08/26 12:10:41;;;;;;;;;;;16.90;92.40;;;;;;4970131;28;20009;-69
2021/08/26 12:13:11;;;;;;;;;;;17.00;92.60;;;;;;4966301;28;19979;-70
2021/08/26 12:15:47;;;;;;;;;;;16.90;92.50;;;;;;4967574;28;19918;-71
2021/08/26 12:18:16;;;;;;;;;;;17.00;92.70;;;;;;4967041;28;20009;-72
2021/08/26 12:20:46;;;;;;;;;;;17.00;92.90;;;;;;4969416;28;19933;-72
2021/08/26 12:23:16;;;;;;;;;;;17.00;92.90;;;;;;4951286;28;19968;-69
2021/08/26 12:25:42;;;;;;;;;;;17.10;93.10;;;;;;4968177;28;19918;-69
2021/08/26 12:28:09;;;;;;;;;;;17.20;93.30;;;;;;4967959;28;19914;-69
2021/08/26 12:30:34;;;;;;;;;;;17.30;93.30;;;;;;4968934;28;19914;-70
2021/08/26 12:33:09;;;;;;;;;;;17.30;93.30;;;;;;4966963;28;19924;-69
2021/08/26 12:35:49;;;;;;;;;;;17.30;93.10;;;;;;4968327;28;20384;-69
2021/08/26 12:38:17;;;;;;;;;;;17.40;93.10;;;;;;4968060;28;19950;-70
2021/08/26 12:41:02;;;;;;;;;;;17.40;93.30;;;;;;4966123;28;20012;-70
2021/08/26 12:43:40;;;;;;;;;;;17.40;93.30;;;;;;4969882;28;19910;-69
2021/08/26 12:46:06;;;;;;;;;;;17.50;93.40;;;;;;4969314;28;19918;-69
2021/08/26 12:48:36;;;;;;;;;;;17.60;93.30;;;;;;4965133;28;19976;-69
2021/08/26 12:51:05;;;;;;;;;;;17.70;92.90;;;;;;4966646;28;20372;-70
2021/08/26 12:53:30;;;;;;;;;;;17.80;92.30;;;;;;4967243;28;20407;-70
2021/08/26 12:55:57;;;;;;;;;;;17.80;91.10;;;;;;4968436;28;19919;-69
2021/08/26 12:58:22;;;;;;;;;;;17.90;90.40;;;;;;4966117;28;19988;-69
2021/08/26 13:00:47;;;;;;;;;;;18.10;88.40;;;;;;4969111;28;20336;-70
2021/08/26 13:03:13;;;;;;;;;;;18.20;86.20;;;;;;4965640;28;19914;-70
2021/08/26 13:05:46;;;;;;;;;;;18.40;78.70;;;;;;4967368;28;19927;-70
2021/08/26 13:08:12;;;;;;;;;;;18.50;76.30;;;;;;5033496;28;19918;-70
2021/08/26 13:10:37;;;;;;;;;;;18.60;73.00;;;;;;4954096;28;19937;-70
2021/08/26 13:13:10;;;;;;;;;;;18.80;73.60;;;;;;4969857;28;19941;-70
2021/08/26 13:15:35;;;;;;;;;;;18.80;68.90;;;;;;4969025;28;19918;-70
2021/08/26 13:18:01;;;;;;;;;;;18.90;66.80;;;;;;4971633;28;19917;-70
2021/08/26 13:20:27;;;;;;;;;;;19.00;67.30;;;;;;4953378;28;19914;-70
2021/08/26 13:22:52;;;;;;;;;;;19.10;68.00;;;;;;4972013;28;19932;-69
2021/08/26 13:25:18;;;;;;;;;;;19.20;65.20;;;;;;4953603;28;20277;-71
2021/08/26 13:27:43;;;;;;;;;;;19.20;65.20;;;;;;4970422;28;19924;-70
2021/08/26 13:30:10;;;;;;;;;;;19.30;66.00;;;;;;4969219;28;22000;-70
2021/08/26 13:32:36;;;;;;;;;;;19.40;65.00;;;;;;4946649;28;21011;-69
2021/08/26 13:35:08;;;;;;;;;;;19.60;66.60;;;;;;4961265;28;20313;-69
2021/08/26 13:37:33;;;;;;;;;;;19.70;65.20;;;;;;4963192;28;19921;-69
2021/08/26 13:39:59;;;;;;;;;;;19.70;65.00;;;;;;4961689;28;19922;-69
2021/08/26 13:42:24;;;;;;;;;;;19.70;64.50;;;;;;4958575;28;19933;-71
2021/08/26 13:44:50;;;;;;;;;;;19.70;64.70;;;;;;4964353;28;19922;-71
2021/08/26 13:47:15;;;;;;;;;;;19.50;63.60;;;;;;4952966;28;19941;-71
2021/08/26 13:49:41;;;;;;;;;;;19.40;64.50;;;;;;4965024;28;19922;-71
2021/08/26 13:52:07;;;;;;;;;;;19.40;64.60;;;;;;4970077;28;19918;-71
2021/08/26 13:54:33;;;;;;;;;;;19.40;64.40;;;;;;4953277;28;19921;-69
2021/08/26 13:56:58;;;;;;;;;;;19.50;64.30;;;;;;4971332;28;19922;-71
2021/08/26 13:59:24;;;;;;;;;;;19.50;63.50;;;;;;4970538;28;19910;-71
2021/08/26 14:01:50;;;;;;;;;;;19.60;62.50;;;;;;4974961;28;19918;-70
2021/08/26 14:04:15;;;;;;;;;;;19.70;63.00;;;;;;4956507;28;19918;-71
2021/08/26 14:06:41;;;;;;;;;;;19.80;62.70;;;;;;4971276;28;20395;-70
2021/08/26 14:09:06;;;;;;;;;;;19.70;62.60;;;;;;4969961;28;19922;-70
2021/08/26 14:11:32;;;;;;;;;;;19.70;62.80;;;;;;4972151;28;19946;-70
2021/08/26 14:13:57;;;;;;;;;;;19.80;62.40;;;;;;4952399;28;19917;-70
2021/08/26 14:16:23;;;;;;;;;;;19.80;63.10;;;;;;4968571;28;20450;-71